Portada
METAR-TAF:

METAR-TAF

Aeroports :

Chicago Executive Airport

Wheeling-Prospect Heights, Illinois, Estats Units d'Amèrica

latitud: 42-07-15N, longitud: 087-54-17W, altitud: 197 m

Observació

L'informe es va fer fa 55 minuts, a les 05:52 UTC
Vent 11 kt del Nord-Oest amb ràfegues de 20 kt
Temperatura 17°C
Humitat 72%
Pressió 1015 hPa
Visibilitat: 16.1 km
Núvols disperses a una alçada de 2400 ft
Cel cobert a una alçada de 2800 ft

METAR: KPWK 260552Z AUTO 31011G20KT 10SM SCT024 OVC028 17/12 A2996 RMK AO2 SLP140 T01670117 10200 20167 402890167 51026 $

Hora: 01:47 (06:47 UTC)


TAF: manca

Observacions i pronòstics meteorològics de més de 4000 aeroports (METAR i TAF).

Les estacions disponibles són els punts grocs i vermells al mapa.

Posi el ratolí al punt desitjat per veure el nom de l'estació.

Feu clic per veure les observacions i els pronòstics meteorològics.

Per canviar el mapa: feu clic els botons verds amb una creu de color negre per apropar; al botó verd amb un guió per allunyar la imatge; o en les fletxes verdes per a mapes adjacents.


METAR-TAF: